Time;durP1;ratioP1;P1;durP2;ratioP2;P2;SDS_P1;SDS_P2;PMS_P1;PMS_P2;Temp;Humidity;BMP_temperature;BMP_pressure;BME280_temperature;BME280_humidity;BME280_pressure;Samples;Min_cycle;Max_cycle;Signal;HPM_P1;HPM_P2
2024/04/15 00:00:44;;;;;;;2.60;1.03;;;;;;;10.07;100.00;100803.19;5349938;26;20355;-71
2024/04/15 00:03:10;;;;;;;3.97;1.43;;;;;;;10.05;100.00;100782.38;5362987;26;20317;-70
2024/04/15 00:05:41;;;;;;;1.63;1.10;;;;;;;10.06;100.00;100783.16;5350109;26;20351;-70
2024/04/15 00:08:06;;;;;;;3.33;1.00;;;;;;;10.06;100.00;100777.88;5351468;26;20233;-70
2024/04/15 00:10:38;;;;;;;1.30;1.20;;;;;;;10.06;100.00;100764.69;5347503;26;20333;-70
2024/04/15 00:13:03;;;;;;;2.40;1.60;;;;;;;10.07;100.00;100755.69;5345754;26;20302;-71
2024/04/15 00:15:31;;;;;;;1.33;1.10;;;;;;;10.07;100.00;100750.41;5341642;26;20235;-70
2024/04/15 00:17:57;;;;;;;1.53;0.93;;;;;;;10.08;100.00;100747.47;5343004;26;20351;-70
2024/04/15 00:20:25;;;;;;;3.03;1.20;;;;;;;10.09;100.00;100742.97;5342616;26;20240;-70
2024/04/15 00:22:53;;;;;;;2.77;1.13;;;;;;;10.12;100.00;100742.31;5347584;26;20302;-71
2024/04/15 00:25:21;;;;;;;4.30;1.30;;;;;;;10.12;100.00;100747.59;5344440;26;20250;-71
2024/04/15 00:27:46;;;;;;;2.73;1.30;;;;;;;10.13;100.00;100733.31;5326473;26;20286;-70
2024/04/15 00:30:14;;;;;;;3.07;1.13;;;;;;;10.14;100.00;100737.50;5356300;21;20391;-78
2024/04/15 00:32:40;;;;;;;2.60;1.17;;;;;;;10.15;100.00;100739.06;5334877;26;20282;-77
2024/04/15 00:35:08;;;;;;;3.93;1.17;;;;;;;10.15;100.00;100733.78;5330170;26;20244;-77
2024/04/15 00:37:34;;;;;;;1.77;0.90;;;;;;;10.15;100.00;100733.78;5327795;26;20237;-76
2024/04/15 00:40:05;;;;;;;1.77;0.97;;;;;;;10.14;100.00;100748.81;5316983;26;20505;-78
2024/04/15 00:42:34;;;;;;;2.50;1.10;;;;;;;10.14;100.00;100755.97;5290026;27;20286;-76
2024/04/15 00:45:02;;;;;;;2.60;1.37;;;;;;;10.13;100.00;100763.13;5303658;27;20237;-77
2024/04/15 00:47:27;;;;;;;2.73;1.43;;;;;;;10.14;100.00;100751.47;5305781;27;20287;-76
2024/04/15 00:49:56;;;;;;;2.63;1.00;;;;;;;10.16;100.00;100751.16;5306276;27;20236;-78
2024/04/15 00:52:21;;;;;;;3.13;1.50;;;;;;;10.18;100.00;100736.53;5299550;27;20283;-77
2024/04/15 00:54:50;;;;;;;5.80;1.47;;;;;;;10.19;100.00;100735.44;5303638;26;20726;-77
2024/04/15 00:57:18;;;;;;;2.43;1.10;;;;;;;10.22;100.00;100726.13;5287711;27;20243;-78
2024/04/15 00:59:46;;;;;;;2.07;1.43;;;;;;;10.22;100.00;100724.28;5282241;27;20641;-78
2024/04/15 01:02:11;;;;;;;2.50;1.30;;;;;;;10.20;100.00;100729.06;5288056;27;20294;-78
2024/04/15 01:04:40;;;;;;;1.27;1.17;;;;;;;10.21;100.00;100738.56;5293239;27;20236;-77
2024/04/15 01:07:05;;;;;;;2.43;1.03;;;;;;;10.20;100.00;100731.72;5297378;27;20291;-77
2024/04/15 01:09:33;;;;;;;3.33;1.33;;;;;;;10.22;100.00;100739.31;5290462;27;20304;-78
2024/04/15 01:11:59;;;;;;;3.17;1.30;;;;;;;10.23;100.00;100732.94;5291022;27;20758;-77
2024/04/15 01:14:29;;;;;;;3.33;1.20;;;;;;;10.24;100.00;100734.50;5295126;27;20241;-76
2024/04/15 01:16:55;;;;;;;1.80;1.10;;;;;;;10.25;100.00;100741.34;5290519;27;20235;-78
2024/04/15 01:19:23;;;;;;;1.50;1.10;;;;;;;10.24;100.00;100735.28;5296825;27;20850;-77
2024/04/15 01:21:48;;;;;;;2.40;1.07;;;;;;;10.23;100.00;100738.22;5303968;26;20588;-77
2024/04/15 01:24:19;;;;;;;1.33;1.00;;;;;;;10.24;100.00;100726.59;5298668;26;20243;-77
2024/04/15 01:26:46;;;;;;;4.00;1.30;;;;;;;10.24;100.00;100743.19;5286387;27;20241;-78
2024/04/15 01:29:14;;;;;;;1.03;0.93;;;;;;;10.23;100.00;100749.56;5295921;27;20240;-77
2024/04/15 01:31:39;;;;;;;1.70;0.90;;;;;;;10.22;100.00;100744.59;5295742;27;20240;-78
2024/04/15 01:34:07;;;;;;;1.90;1.20;;;;;;;10.21;100.00;100732.50;5300195;27;20232;-77
2024/04/15 01:36:33;;;;;;;3.97;1.20;;;;;;;10.22;100.00;100740.09;5295862;27;20275;-77
2024/04/15 01:39:01;;;;;;;1.00;1.00;;;;;;;10.21;100.00;100728.00;5253293;27;20246;-77
2024/04/15 01:41:29;;;;;;;2.20;1.17;;;;;;;10.21;100.00;100722.72;5288815;27;20326;-77
2024/04/15 01:43:57;;;;;;;2.17;1.10;;;;;;;10.22;100.00;100726.13;5306056;27;20247;-76
2024/04/15 01:46:22;;;;;;;4.00;1.20;;;;;;;10.23;100.00;100714.47;5301328;27;20256;-76
2024/04/15 01:48:50;;;;;;;7.73;1.37;;;;;;;10.23;100.00;100723.16;5284306;27;20686;-77
2024/04/15 01:51:16;;;;;;;1.67;1.10;;;;;;;10.22;100.00;100712.94;5299499;27;20636;-76
2024/04/15 01:53:44;;;;;;;2.90;1.10;;;;;;;10.24;100.00;100705.47;5305114;27;20248;-77
2024/04/15 01:56:09;;;;;;;2.57;1.53;;;;;;;10.24;100.00;100694.94;5289458;26;20262;-77
2024/04/15 01:58:44;;;;;;;2.67;1.40;;;;;;;10.26;100.00;100696.13;5317659;26;20239;-77
2024/04/15 02:01:10;;;;;;;2.60;1.40;;;;;;;10.26;100.00;100693.47;5297916;27;20351;-77
2024/04/15 02:03:39;;;;;;;1.10;1.00;;;;;;;10.29;100.00;100686.78;5299174;27;20738;-78
2024/04/15 02:06:05;;;;;;;3.80;1.43;;;;;;;10.28;100.00;100686.03;5307941;27;20260;-77
2024/04/15 02:08:33;;;;;;;3.67;1.67;;;;;;;10.29;100.00;100676.25;5297029;27;20239;-77
2024/04/15 02:10:58;;;;;;;3.50;1.33;;;;;;;10.29;100.00;100684.94;5291521;27;20399;-77
2024/04/15 02:13:26;;;;;;;1.93;1.10;;;;;;;10.31;100.00;100676.72;5293266;27;20241;-77
2024/04/15 02:15:54;;;;;;;2.93;1.37;;;;;;;10.30;100.00;100667.25;5295305;27;20288;-77
2024/04/15 02:18:22;;;;;;;6.80;1.37;;;;;;;10.30;100.00;100656.69;5308936;27;20237;-77
2024/04/15 02:20:48;;;;;;;2.93;1.30;;;;;;;10.31;100.00;100663.50;5279327;27;20261;-78
2024/04/15 02:23:16;;;;;;;6.07;2.03;;;;;;;10.30;100.00;100670.66;5294103;27;20241;-77
2024/04/15 02:25:42;;;;;;;4.27;1.57;;;;;;;10.30;100.00;100673.28;5306582;27;20638;-77
2024/04/15 02:28:10;;;;;;;2.70;1.30;;;;;;;10.27;100.00;100670.53;5298671;27;20248;-77
2024/04/15 02:30:35;;;;;;;2.10;0.97;;;;;;;10.25;98.70;100668.19;5310818;27;20624;-76
2024/04/15 02:33:09;;;;;;;3.00;1.27;;;;;;;10.28;97.32;100664.13;5301941;27;20244;-77
2024/04/15 02:35:34;;;;;;;2.80;1.10;;;;;;;10.27;95.16;100673.16;5287504;27;20292;-77
2024/04/15 02:38:02;;;;;;;1.93;1.00;;;;;;;10.29;96.55;100676.25;5290965;27;20906;-77
2024/04/15 02:40:28;;;;;;;4.10;1.20;;;;;;;10.30;94.35;100699.69;5297067;27;20255;-77
2024/04/15 02:42:56;;;;;;;7.13;1.70;;;;;;;10.28;94.12;100707.16;5302883;27;20290;-77
2024/04/15 02:45:21;;;;;;;4.00;1.27;;;;;;;10.29;96.14;100718.47;5301321;27;20260;-77
2024/04/15 02:47:49;;;;;;;4.07;1.70;;;;;;;10.29;100.00;100729.03;5299485;27;20236;-76
2024/04/15 02:50:18;;;;;;;4.53;1.40;;;;;;;10.17;100.00;100727.09;5298765;27;20299;-77
2024/04/15 02:52:46;;;;;;;2.57;1.40;;;;;;;10.05;100.00;100734.13;5295379;27;20234;-77
2024/04/15 02:55:11;;;;;;;3.53;1.40;;;;;;;9.97;100.00;100740.19;5291530;26;20343;-77
2024/04/15 02:57:39;;;;;;;2.67;1.50;;;;;;;9.80;100.00;100740.25;5298011;27;20253;-77
2024/04/15 03:00:06;;;;;;;1.77;1.30;;;;;;;9.72;100.00;100743.69;5297204;27;20344;-76
2024/04/15 03:02:34;;;;;;;4.83;1.53;;;;;;;9.58;100.00;100751.03;5295852;27;20237;-76
2024/04/15 03:04:59;;;;;;;3.10;1.20;;;;;;;9.54;100.00;100748.25;5305585;26;20816;-77
2024/04/15 03:07:30;;;;;;;3.67;1.63;;;;;;;9.45;100.00;100749.34;5302723;26;20256;-77
2024/04/15 03:09:55;;;;;;;4.67;1.80;;;;;;;9.39;100.00;100756.66;5288456;26;20853;-77
2024/04/15 03:12:23;;;;;;;6.73;1.60;;;;;;;9.30;100.00;100753.25;5303218;27;20240;-77
2024/04/15 03:14:49;;;;;;;6.30;1.80;;;;;;;9.24;100.00;100748.44;5301048;27;20585;-77
2024/04/15 03:17:17;;;;;;;3.87;1.93;;;;;;;9.16;100.00;100749.25;5298386;26;20293;-77
2024/04/15 03:19:43;;;;;;;2.97;1.70;;;;;;;9.09;100.00;100752.34;5301558;27;20236;-77
2024/04/15 03:22:11;;;;;;;8.57;1.43;;;;;;;9.03;100.00;100748.31;5297666;27;20358;-77
2024/04/15 03:24:39;;;;;;;3.80;1.50;;;;;;;8.98;100.00;100745.03;5293555;27;20255;-77
2024/04/15 03:27:07;;;;;;;4.77;1.57;;;;;;;8.93;100.00;100745.19;5289945;27;20289;-77
2024/04/15 03:29:33;;;;;;;1.83;1.57;;;;;;;8.89;100.00;100747.69;5298605;27;20285;-77
2024/04/15 03:32:01;;;;;;;4.43;1.43;;;;;;;8.84;100.00;100736.53;5299755;27;20790;-77
2024/04/15 03:34:26;;;;;;;3.13;1.40;;;;;;;8.79;100.00;100734.81;5290473;27;20250;-77
2024/04/15 03:36:54;;;;;;;2.40;1.80;;;;;;;8.75;100.00;100728.63;5308867;26;20359;-77
2024/04/15 03:39:23;;;;;;;3.27;1.73;;;;;;;8.74;100.00;100727.06;5304967;26;20261;-77
2024/04/15 03:41:53;;;;;;;2.50;1.20;;;;;;;8.71;100.00;100725.06;5298271;26;20345;-77
2024/04/15 03:44:19;;;;;;;1.83;1.50;;;;;;;8.71;100.00;100719.81;5273855;27;20812;-77
2024/04/15 03:46:47;;;;;;;3.33;1.93;;;;;;;8.69;100.00;100716.69;5302610;27;20263;-76
2024/04/15 03:49:17;;;;;;;2.30;1.20;;;;;;;8.68;100.00;100711.72;5301856;27;20258;-75
2024/04/15 03:51:42;;;;;;;2.23;1.27;;;;;;;8.70;100.00;100706.94;5298136;27;20334;-76
2024/04/15 03:54:10;;;;;;;1.60;1.50;;;;;;;8.67;100.00;100703.09;5298977;26;20249;-77
2024/04/15 03:56:36;;;;;;;4.87;1.20;;;;;;;8.66;100.00;100696.28;5308586;27;20341;-77
2024/04/15 03:59:07;;;;;;;2.37;1.50;;;;;;;8.66;100.00;100691.00;5310043;26;20241;-77
2024/04/15 04:01:32;;;;;;;1.83;1.33;;;;;;;8.67;100.00;100674.13;5305018;27;20315;-76
2024/04/15 04:04:00;;;;;;;1.70;1.33;;;;;;;8.68;100.00;100680.16;5291702;27;20353;-77
2024/04/15 04:06:26;;;;;;;2.30;1.60;;;;;;;8.68;100.00;100670.41;5291029;26;20338;-77
2024/04/15 04:08:54;;;;;;;2.90;1.53;;;;;;;8.67;100.00;100663.59;5296642;26;20242;-77
2024/04/15 04:11:21;;;;;;;4.97;2.20;;;;;;;8.68;100.00;100659.88;5301194;27;20727;-77
2024/04/15 04:13:49;;;;;;;1.80;1.70;;;;;;;8.71;100.00;100658.47;5298870;27;20678;-76
2024/04/15 04:16:18;;;;;;;4.70;1.73;;;;;;;8.67;100.00;100658.34;5300485;27;20292;-77
2024/04/15 04:18:47;;;;;;;1.93;1.73;;;;;;;8.69;100.00;100660.66;5298917;26;20249;-77
2024/04/15 04:21:13;;;;;;;2.37;1.60;;;;;;;8.68;100.00;100654.59;5296385;27;20593;-77
2024/04/15 04:23:41;;;;;;;3.90;1.93;;;;;;;8.71;100.00;100648.72;5293654;26;20320;-76
2024/04/15 04:26:06;;;;;;;3.23;1.90;;;;;;;8.71;100.00;100647.94;5291943;26;20237;-76
2024/04/15 04:28:35;;;;;;;4.23;2.03;;;;;;;8.72;100.00;100644.22;5293717;27;20792;-76
2024/04/15 04:31:02;;;;;;;6.17;2.50;;;;;;;8.70;100.00;100639.25;5294589;27;20592;-77
2024/04/15 04:33:34;;;;;;;3.60;2.10;;;;;;;8.71;100.00;100637.41;5298846;27;20242;-76
2024/04/15 04:36:00;;;;;;;7.97;2.27;;;;;;;8.71;100.00;100640.84;5304993;27;20305;-77
2024/04/15 04:38:28;;;;;;;5.77;2.30;;;;;;;8.73;100.00;100643.91;5301190;26;20754;-77
2024/04/15 04:40:57;;;;;;;2.20;2.00;;;;;;;8.74;100.00;100642.03;5307242;27;20348;-76
2024/04/15 04:43:25;;;;;;;1.93;1.77;;;;;;;8.76;100.00;100639.91;5274584;27;20249;-76
2024/04/15 04:45:50;;;;;;;2.20;2.00;;;;;;;8.76;100.00;100638.00;5297644;27;20293;-77
2024/04/15 04:48:18;;;;;;;3.17;2.43;;;;;;;8.76;100.00;100627.47;5298745;27;20260;-76
2024/04/15 04:50:47;;;;;;;3.67;2.30;;;;;;;8.77;100.00;100626.44;5298659;26;20496;-77
2024/04/15 04:53:15;;;;;;;2.20;2.00;;;;;;;8.78;100.00;100617.44;5303490;26;20315;-77
2024/04/15 04:55:40;;;;;;;4.40;2.57;;;;;;;8.79;100.00;100615.56;5310653;26;20351;-75
2024/04/15 04:58:09;;;;;;;3.83;2.27;;;;;;;8.80;100.00;100622.41;5295250;26;20242;-76
2024/04/15 05:00:34;;;;;;;6.80;2.50;;;;;;;8.82;100.00;100621.00;5294435;26;20839;-77
2024/04/15 05:03:03;;;;;;;4.00;2.03;;;;;;;8.79;100.00;100624.25;5303199;27;20286;-77
2024/04/15 05:05:33;;;;;;;5.03;2.60;;;;;;;8.83;100.00;100627.81;5302478;27;20619;-77
2024/04/15 05:08:03;;;;;;;2.57;2.37;;;;;;;8.87;100.00;100630.59;5297076;27;20586;-76
2024/04/15 05:10:29;;;;;;;2.93;2.10;;;;;;;8.89;100.00;100626.56;5292792;26;20936;-77
2024/04/15 05:12:57;;;;;;;3.83;2.60;;;;;;;8.90;100.00;100622.06;5296507;26;20241;-75
2024/04/15 05:15:22;;;;;;;5.60;2.80;;;;;;;8.94;100.00;100615.06;5293262;27;20317;-77
2024/04/15 05:17:50;;;;;;;4.97;2.40;;;;;;;8.94;100.00;100609.81;5296493;27;20318;-77
2024/04/15 05:20:16;;;;;;;4.83;2.57;;;;;;;8.93;100.00;100595.88;5299712;27;20242;-77
2024/04/15 05:22:44;;;;;;;5.87;2.10;;;;;;;8.96;100.00;100597.13;5280271;27;20245;-77
2024/04/15 05:25:15;;;;;;;4.33;2.40;;;;;;;8.95;100.00;100591.06;5297469;26;20338;-76
2024/04/15 05:27:43;;;;;;;2.40;2.13;;;;;;;8.97;100.00;100593.38;5281367;27;20235;-77
2024/04/15 05:30:12;;;;;;;3.93;2.47;;;;;;;8.97;100.00;100588.91;5307502;26;20282;-76
2024/04/15 05:32:40;;;;;;;4.00;2.37;;;;;;;9.00;100.00;100603.31;5290690;27;20306;-77
2024/04/15 05:35:05;;;;;;;5.80;2.80;;;;;;;9.03;100.00;100592.91;5291910;26;20784;-77
2024/04/15 05:37:34;;;;;;;3.53;2.30;;;;;;;9.05;100.00;100584.69;5300601;27;20251;-74
2024/04/15 05:39:59;;;;;;;5.90;3.00;;;;;;;9.09;100.00;100573.22;5291988;26;20241;-75
2024/04/15 05:42:30;;;;;;;7.07;2.60;;;;;;;9.11;100.00;100578.94;5303452;26;20288;-78
2024/04/15 05:44:55;;;;;;;3.07;2.60;;;;;;;9.15;100.00;100577.22;5302256;27;20702;-75
2024/04/15 05:47:23;;;;;;;4.37;2.90;;;;;;;9.18;100.00;100573.19;5300391;26;20247;-77
2024/04/15 05:49:48;;;;;;;2.70;2.50;;;;;;;9.23;100.00;100573.00;5292648;27;20263;-77
2024/04/15 05:52:17;;;;;;;3.37;2.67;;;;;;;9.26;100.00;100562.59;5304269;26;20234;-76
2024/04/15 05:54:43;;;;;;;4.40;2.90;;;;;;;9.30;100.00;100563.53;5297086;27;20278;-78
2024/04/15 05:57:11;;;;;;;4.77;2.70;;;;;;;9.34;100.00;100574.19;5306614;27;20236;-75
2024/04/15 05:59:39;;;;;;;5.63;3.10;;;;;;;9.35;100.00;100565.97;5269174;27;20244;-76
2024/04/15 06:02:07;;;;;;;3.87;2.97;;;;;;;9.38;100.00;100585.66;5304580;27;20586;-77
2024/04/15 06:04:35;;;;;;;5.47;2.90;;;;;;;9.39;100.00;100566.91;5295725;26;20231;-77
2024/04/15 06:07:03;;;;;;;3.97;2.77;;;;;;;9.39;100.00;100568.75;5304953;26;20236;-78
2024/04/15 06:09:28;;;;;;;5.33;2.53;;;;;;;9.41;100.00;100559.44;5302994;26;20272;-78
2024/04/15 06:11:56;;;;;;;4.97;2.93;;;;;;;9.46;100.00;100558.47;5305608;27;20243;-76
2024/04/15 06:14:22;;;;;;;4.13;2.70;;;;;;;9.48;100.00;100556.31;5302922;27;20319;-76
2024/04/15 06:16:54;;;;;;;3.93;2.83;;;;;;;9.53;100.00;100556.13;5279414;27;20348;-77
2024/04/15 06:19:19;;;;;;;4.27;3.10;;;;;;;9.57;100.00;100549.91;5299355;27;20325;-76
2024/04/15 06:21:47;;;;;;;6.53;3.60;;;;;;;9.64;100.00;100541.50;5292279;26;20236;-77
2024/04/15 06:24:13;;;;;;;6.17;3.40;;;;;;;9.70;100.00;100545.47;5287801;27;20373;-77
2024/04/15 06:26:43;;;;;;;5.80;2.50;;;;;;;9.75;100.00;100534.75;5304222;27;20244;-76
2024/04/15 06:29:08;;;;;;;4.63;3.17;;;;;;;9.76;100.00;100539.72;5297794;27;20334;-76
2024/04/15 06:31:36;;;;;;;3.77;3.37;;;;;;;9.80;100.00;100537.97;5273535;27;20303;-77
2024/04/15 06:34:04;;;;;;;4.00;2.57;;;;;;;9.82;100.00;100535.00;5305375;27;20299;-76
2024/04/15 06:36:33;;;;;;;4.50;2.80;;;;;;;9.88;100.00;100536.38;5301405;27;20240;-77
2024/04/15 06:38:59;;;;;;;3.73;2.70;;;;;;;9.93;100.00;100544.84;5281428;27;20278;-75
2024/04/15 06:41:27;;;;;;;3.77;3.27;;;;;;;9.99;100.00;100534.91;5302815;27;20233;-77
2024/04/15 06:43:52;;;;;;;6.60;3.70;;;;;;;10.06;100.00;100532.53;5296112;26;20233;-77
2024/04/15 06:46:20;;;;;;;3.50;3.00;;;;;;;10.11;100.00;100525.22;5308902;27;20334;-78
2024/04/15 06:48:46;;;;;;;4.50;2.70;;;;;;;10.19;100.00;100526.22;5293460;27;20249;-75
2024/04/15 06:51:16;;;;;;;4.50;2.93;;;;;;;10.22;100.00;100528.22;5296636;26;20383;-76
2024/04/15 06:53:42;;;;;;;5.63;2.47;;;;;;;10.25;100.00;100522.28;5303580;26;20235;-77
2024/04/15 06:56:11;;;;;;;5.07;3.17;;;;;;;10.26;100.00;100510.63;5308357;26;20665;-76
2024/04/15 06:58:36;;;;;;;5.23;2.30;;;;;;;10.28;100.00;100513.72;5309081;27;20236;-78
2024/04/15 07:01:05;;;;;;;6.13;2.57;;;;;;;10.28;100.00;100511.06;5300975;27;20320;-77
2024/04/15 07:03:30;;;;;;;4.00;2.40;;;;;;;10.30;100.00;100508.91;5280437;27;20287;-77
2024/04/15 07:05:58;;;;;;;2.63;2.03;;;;;;;10.34;100.00;100507.13;5298943;26;20579;-78
2024/04/15 07:08:26;;;;;;;3.10;2.00;;;;;;;10.41;100.00;100504.75;5310689;26;20349;-78
2024/04/15 07:10:54;;;;;;;2.93;2.23;;;;;;;10.46;100.00;100501.91;5309111;27;20282;-76
2024/04/15 07:13:20;;;;;;;4.77;2.57;;;;;;;10.52;100.00;100493.47;5311404;27;20252;-78
2024/04/15 07:15:48;;;;;;;3.60;2.23;;;;;;;10.62;100.00;100492.25;5315883;26;20324;-76
2024/04/15 07:18:13;;;;;;;3.57;2.30;;;;;;;10.73;100.00;100485.47;5309027;26;21018;-75
2024/04/15 07:20:41;;;;;;;6.97;2.40;;;;;;;10.81;100.00;100488.00;5311283;27;20283;-78
2024/04/15 07:23:08;;;;;;;3.50;2.37;;;;;;;10.88;100.00;100498.03;5306147;26;20234;-78
2024/04/15 07:25:39;;;;;;;5.00;2.07;;;;;;;10.92;100.00;100494.38;5304498;26;20318;-77
2024/04/15 07:28:05;;;;;;;2.73;1.70;;;;;;;10.96;100.00;100497.91;5309347;27;20299;-78
2024/04/15 07:30:33;;;;;;;3.33;1.83;;;;;;;10.98;100.00;100498.34;5309445;27;20236;-78
2024/04/15 07:32:59;;;;;;;2.30;1.93;;;;;;;11.01;100.00;100492.44;5299449;26;20242;-76
2024/04/15 07:35:30;;;;;;;2.37;2.00;;;;;;;11.08;100.00;100483.94;5306537;27;20297;-76
2024/04/15 07:37:56;;;;;;;4.47;1.87;;;;;;;11.13;100.00;100484.50;5301129;26;20229;-77
2024/04/15 07:40:24;;;;;;;3.07;1.90;;;;;;;11.20;100.00;100484.72;5300289;26;20327;-78
2024/04/15 07:42:55;;;;;;;3.53;1.70;;;;;;;11.31;100.00;100490.31;5287113;26;20309;-77
2024/04/15 07:45:23;;;;;;;2.50;1.67;;;;;;;11.42;100.00;100486.91;5300760;27;20295;-77
2024/04/15 07:47:49;;;;;;;3.40;1.90;;;;;;;11.55;100.00;100482.38;5297129;26;20748;-78
2024/04/15 07:50:17;;;;;;;2.60;1.70;;;;;;;11.67;100.00;100480.50;5289595;26;20257;-78
2024/04/15 07:52:45;;;;;;;3.20;1.53;;;;;;;11.79;100.00;100492.91;5307473;27;20281;-78
2024/04/15 07:55:13;;;;;;;4.33;1.90;;;;;;;11.83;100.00;100491.91;5299163;26;20250;-75
2024/04/15 07:57:41;;;;;;;1.57;1.47;;;;;;;11.85;100.00;100488.94;5301308;27;20774;-77
2024/04/15 08:00:10;;;;;;;1.80;1.33;;;;;;;11.85;100.00;100483.66;5298480;26;20227;-77
2024/04/15 08:02:42;;;;;;;1.97;1.30;;;;;;;11.81;100.00;100485.41;5307977;27;20302;-76
2024/04/15 08:05:08;;;;;;;1.30;1.20;;;;;;;11.76;100.00;100483.00;5299429;27;20300;-78
2024/04/15 08:07:36;;;;;;;3.23;1.33;;;;;;;11.76;100.00;100478.47;5300761;26;20945;-78
2024/04/15 08:10:01;;;;;;;1.23;1.13;;;;;;;11.81;100.00;100470.31;5305825;27;20299;-78
2024/04/15 08:12:30;;;;;;;1.47;1.30;;;;;;;11.90;100.00;100467.53;5301069;27;20334;-77
2024/04/15 08:14:55;;;;;;;1.87;1.20;;;;;;;12.03;100.00;100466.38;5304100;26;20247;-78
2024/04/15 08:17:26;;;;;;;1.87;1.67;;;;;;;12.11;100.00;100473.41;5294161;27;20642;-77
2024/04/15 08:19:52;;;;;;;5.23;1.27;;;;;;;12.22;100.00;100472.56;5296080;27;20231;-77
2024/04/15 08:22:20;;;;;;;1.63;1.20;;;;;;;12.33;100.00;100460.41;5294602;27;20239;-76
2024/04/15 08:24:47;;;;;;;1.60;1.13;;;;;;;12.51;100.00;100460.81;5292643;27;20232;-77
2024/04/15 08:27:15;;;;;;;2.50;1.30;;;;;;;12.71;100.00;100470.41;5302709;27;20239;-78
2024/04/15 08:29:42;;;;;;;1.10;1.00;;;;;;;12.88;100.00;100464.78;5287654;26;20247;-77
2024/04/15 08:32:10;;;;;;;1.87;1.00;;;;;;;12.99;100.00;100463.19;5294859;26;20252;-77
2024/04/15 08:34:38;;;;;;;1.70;0.90;;;;;;;13.19;100.00;100462.13;5302092;26;20244;-77
2024/04/15 08:37:07;;;;;;;2.10;1.10;;;;;;;13.40;100.00;100468.66;5300313;26;20236;-76
2024/04/15 08:39:35;;;;;;;0.90;0.80;;;;;;;13.56;100.00;100458.75;5302071;26;21049;-78
2024/04/15 08:42:12;;;;;;;1.33;0.80;;;;;;;13.73;100.00;100453.06;5281745;26;20248;-76
2024/04/15 08:44:41;;;;;;;1.27;0.80;;;;;;;13.78;100.00;100444.06;5306545;26;20241;-77
2024/04/15 08:47:12;;;;;;;1.83;0.80;;;;;;;13.84;100.00;100440.78;5300586;27;20342;-77
2024/04/15 08:49:40;;;;;;;1.00;0.80;;;;;;;13.88;100.00;100446.16;5286175;27;20235;-76
2024/04/15 08:52:08;;;;;;;1.13;0.97;;;;;;;13.84;100.00;100450.63;5302097;26;20287;-77
2024/04/15 08:54:34;;;;;;;1.37;0.80;;;;;;;13.83;100.00;100439.25;5299465;26;20437;-78
2024/04/15 08:57:04;;;;;;;2.07;0.87;;;;;;;13.85;100.00;100437.00;5301810;27;20236;-76
2024/04/15 08:59:30;;;;;;;1.03;0.70;;;;;;;13.87;100.00;100432.09;5296420;27;21064;-76
2024/04/15 09:01:58;;;;;;;0.83;0.70;;;;;;;13.98;100.00;100442.94;5291555;26;20274;-78
2024/04/15 09:04:24;;;;;;;2.10;0.80;;;;;;;14.10;100.00;100434.81;5302600;27;20310;-78
2024/04/15 09:06:55;;;;;;;1.10;0.70;;;;;;;14.24;100.00;100443.06;5293974;26;20283;-78
2024/04/15 09:09:21;;;;;;;0.83;0.70;;;;;;;14.32;100.00;100436.75;5301790;27;20758;-76
2024/04/15 09:11:49;;;;;;;1.47;0.90;;;;;;;14.37;100.00;100428.47;5303290;26;20353;-77
2024/04/15 09:14:15;;;;;;;1.20;0.90;;;;;;;14.40;100.00;100423.25;5314358;26;20324;-78
2024/04/15 09:16:43;;;;;;;2.87;0.90;;;;;;;14.38;100.00;100427.38;5293917;27;20247;-76
2024/04/15 09:19:09;;;;;;;1.47;0.87;;;;;;;14.37;100.00;100423.16;5290300;26;20302;-77
2024/04/15 09:21:39;;;;;;;1.47;0.87;;;;;;;14.34;100.00;100423.91;5288816;26;20366;-77
2024/04/15 09:24:10;;;;;;;2.20;0.80;;;;;;;14.40;100.00;100412.63;5298072;26;20875;-77
2024/04/15 09:26:38;;;;;;;1.67;1.00;;;;;;;14.45;100.00;100412.34;5301930;26;20278;-76
2024/04/15 09:29:03;;;;;;;4.10;0.90;;;;;;;14.46;100.00;100410.44;5303665;26;20320;-77
2024/04/15 09:31:32;;;;;;;1.10;0.77;;;;;;;14.41;100.00;100405.41;5293106;26;20236;-79
2024/04/15 09:33:58;;;;;;;2.47;0.83;;;;;;;14.40;100.00;100409.97;5301871;27;20247;-78
2024/04/15 09:36:33;;;;;;;1.30;0.90;;;;;;;14.43;100.00;100405.84;5283366;26;20253;-77
2024/04/15 09:39:00;;;;;;;0.97;0.77;;;;;;;14.37;100.00;100394.72;5288853;26;20290;-77
2024/04/15 09:41:32;;;;;;;3.47;0.90;;;;;;;14.34;100.00;100379.50;5297553;26;20244;-77
2024/04/15 09:43:59;;;;;;;1.20;0.83;;;;;;;14.27;100.00;100383.91;5292535;27;20368;-78
2024/04/15 09:46:32;;;;;;;2.80;0.90;;;;;;;14.25;100.00;100380.84;5292128;26;20287;-78
2024/04/15 09:49:02;;;;;;;1.17;0.83;;;;;;;14.09;100.00;100372.19;5304158;27;20243;-78
2024/04/15 09:51:34;;;;;;;2.20;0.90;;;;;;;14.04;100.00;100364.53;5296918;27;20240;-78
2024/04/15 09:54:06;;;;;;;4.00;1.00;;;;;;;13.95;100.00;100356.03;5290611;27;20383;-78
2024/04/15 09:56:44;;;;;;;1.10;0.73;;;;;;;13.85;100.00;100354.72;5284426;26;20274;-76
2024/04/15 09:59:13;;;;;;;3.47;1.10;;;;;;;13.70;100.00;100363.53;5279764;27;20229;-78
2024/04/15 10:01:42;;;;;;;1.87;0.97;;;;;;;13.67;100.00;100353.59;5289638;26;20659;-78
2024/04/15 10:04:18;;;;;;;0.87;0.73;;;;;;;13.63;100.00;100349.38;5290295;27;20287;-78
2024/04/15 10:06:51;;;;;;;1.50;0.80;;;;;;;13.55;100.00;100353.03;5317002;26;20757;-77
2024/04/15 10:09:17;;;;;;;1.27;0.90;;;;;;;13.49;100.00;100346.44;5291853;26;20296;-77
2024/04/15 10:11:50;;;;;;;2.63;1.10;;;;;;;13.48;100.00;100345.69;5298182;27;20378;-78
2024/04/15 10:14:18;;;;;;;2.73;1.23;;;;;;;13.47;100.00;100332.75;5298990;27;20241;-78
2024/04/15 10:16:48;;;;;;;2.07;1.00;;;;;;;13.53;100.00;100332.13;5301079;26;20325;-77
2024/04/15 10:19:22;;;;;;;1.17;0.90;;;;;;;13.54;100.00;100325.72;5298404;27;20234;-77
2024/04/15 10:21:50;;;;;;;1.10;1.00;;;;;;;13.59;100.00;100329.94;5305424;27;20242;-76
2024/04/15 10:24:16;;;;;;;1.60;1.07;;;;;;;13.61;100.00;100327.72;5302400;27;20247;-77
2024/04/15 10:26:44;;;;;;;2.13;1.07;;;;;;;13.62;100.00;100314.09;5307455;26;20935;-76
2024/04/15 10:29:16;;;;;;;1.63;0.93;;;;;;;13.62;100.00;100318.66;5307301;26;20287;-78
2024/04/15 10:31:44;;;;;;;3.30;1.03;;;;;;;13.68;100.00;100318.03;5303172;26;20251;-77
2024/04/15 10:34:14;;;;;;;0.93;0.90;;;;;;;13.72;100.00;100310.88;5259830;27;20270;-77
2024/04/15 10:36:43;;;;;;;0.93;0.90;;;;;;;13.75;100.00;100312.84;5290625;27;20265;-78
2024/04/15 10:39:15;;;;;;;0.70;0.70;;;;;;;13.82;100.00;100306.88;5299083;27;20737;-78
2024/04/15 10:41:44;;;;;;;1.23;0.90;;;;;;;13.90;100.00;100296.03;5294426;27;20303;-77
2024/04/15 10:44:10;;;;;;;0.80;0.80;;;;;;;13.99;100.00;100299.22;5298363;26;20239;-77
2024/04/15 10:46:43;;;;;;;0.77;0.77;;;;;;;14.06;100.00;100291.38;5296035;27;20251;-77
2024/04/15 10:49:08;;;;;;;1.90;1.00;;;;;;;14.14;100.00;100279.75;5287217;27;20241;-77
2024/04/15 10:51:37;;;;;;;2.87;1.00;;;;;;;14.24;100.00;100270.44;5286857;27;20354;-78
2024/04/15 10:54:04;;;;;;;2.30;1.00;;;;;;;14.34;100.00;100259.22;5299008;26;20359;-77
2024/04/15 10:56:32;;;;;;;2.93;0.90;;;;;;;14.44;100.00;100256.69;5301115;27;21047;-78
2024/04/15 10:58:58;;;;;;;5.03;0.90;;;;;;;14.55;100.00;100260.25;5297576;27;20244;-77
2024/04/15 11:01:29;;;;;;;2.73;1.00;;;;;;;14.72;100.00;100251.78;5278686;27;20472;-77
2024/04/15 11:03:57;;;;;;;2.13;1.10;;;;;;;14.82;100.00;100256.47;5298304;27;20359;-77
2024/04/15 11:06:25;;;;;;;1.70;1.10;;;;;;;14.94;100.00;100252.78;5293660;27;20237;-76
2024/04/15 11:08:51;;;;;;;1.10;1.00;;;;;;;14.97;100.00;100250.19;5297758;27;20341;-77
2024/04/15 11:11:19;;;;;;;2.20;0.90;;;;;;;15.00;100.00;100243.38;5298625;27;20255;-76
2024/04/15 11:13:45;;;;;;;4.93;1.00;;;;;;;15.09;100.00;100239.31;5290137;27;20342;-78
2024/04/15 11:16:14;;;;;;;1.80;0.90;;;;;;;15.23;100.00;100231.50;5298525;27;20244;-77
2024/04/15 11:18:39;;;;;;;2.03;0.80;;;;;;;15.36;100.00;100232.78;5297755;27;20237;-78
2024/04/15 11:21:11;;;;;;;3.67;1.20;;;;;;;15.51;100.00;100229.13;5304156;26;20341;-78